Time;durP1;ratioP1;P1;durP2;ratioP2;P2;SDS_P1;SDS_P2;PMS_P1;PMS_P2;Temp;Humidity;BMP_temperature;BMP_pressure;BME280_temperature;BME280_humidity;BME280_pressure;Samples;Min_cycle;Max_cycle;Signal;HPM_P1;HPM_P2
2024/01/18 00:00:37;;;;;;;0.50;0.50;;;;;;;7.59;100.00;93554.44;4927796;28;20260;-86
2024/01/18 00:05:47;;;;;;;1.10;0.70;;;;;;;7.62;100.00;93564.28;4969391;28;20216;-86
2024/01/18 00:11:06;;;;;;;0.60;0.60;;;;;;;7.61;100.00;93563.47;4954267;28;20750;-86
2024/01/18 00:13:41;;;;;;;0.77;0.70;;;;;;;7.59;100.00;93564.69;4956736;28;20200;-86
2024/01/18 00:16:26;;;;;;;0.60;0.60;;;;;;;7.58;100.00;93563.91;4956879;28;20693;-86
2024/01/18 00:21:39;;;;;;;0.50;0.50;;;;;;;7.55;100.00;93561.75;4956176;28;20284;-85
2024/01/18 00:24:06;;;;;;;0.60;0.60;;;;;;;7.54;100.00;93567.06;4955726;29;20208;-87
2024/01/18 00:26:47;;;;;;;0.60;0.60;;;;;;;7.55;100.00;93577.09;4955752;28;20200;-86
2024/01/18 00:29:20;;;;;;;1.27;0.70;;;;;;;7.57;100.00;93576.91;4955653;28;20236;-86
2024/01/18 00:31:47;;;;;;;0.60;0.60;;;;;;;7.54;100.00;93582.44;4960808;28;20223;-86
2024/01/18 00:34:14;;;;;;;0.80;0.67;;;;;;;7.53;100.00;93578.31;4967709;28;20814;-86
2024/01/18 00:36:40;;;;;;;0.60;0.60;;;;;;;7.50;100.00;93594.88;4974241;28;20584;-86
2024/01/18 00:39:24;;;;;;;0.60;0.60;;;;;;;7.53;100.00;93579.09;4975418;28;20205;-86
2024/01/18 00:41:52;;;;;;;0.90;0.60;;;;;;;7.53;100.00;93579.09;4975169;28;20243;-86
2024/01/18 00:44:40;;;;;;;0.60;0.60;;;;;;;7.54;100.00;93579.88;4972649;28;20235;-86
2024/01/18 00:47:19;;;;;;;0.50;0.50;;;;;;;7.48;100.00;93586.63;4950925;28;20212;-86
2024/01/18 00:49:56;;;;;;;0.60;0.60;;;;;;;7.51;100.00;93578.50;4954540;28;20287;-85
2024/01/18 00:52:22;;;;;;;0.63;0.63;;;;;;;7.53;100.00;93586.75;4969051;28;20192;-86
2024/01/18 00:54:49;;;;;;;0.60;0.60;;;;;;;7.52;100.00;93594.66;4971817;28;20220;-86
2024/01/18 00:57:15;;;;;;;0.50;0.50;;;;;;;7.49;100.00;93590.75;4955483;28;20691;-86
2024/01/18 00:59:45;;;;;;;0.50;0.50;;;;;;;7.51;100.00;93587.97;4955125;28;20209;-86
2024/01/18 01:02:28;;;;;;;0.40;0.40;;;;;;;7.54;100.00;93587.56;4954729;28;20223;-86
2024/01/18 01:04:54;;;;;;;0.40;0.40;;;;;;;7.52;100.00;93586.97;4953250;28;20226;-86
2024/01/18 01:10:05;;;;;;;0.60;0.60;;;;;;;7.50;100.00;93583.84;4973350;28;20597;-86
2024/01/18 01:12:32;;;;;;;0.47;0.47;;;;;;;7.51;100.00;93575.16;4956840;28;20635;-86
2024/01/18 01:14:58;;;;;;;0.57;0.57;;;;;;;7.56;100.00;93577.88;4954984;28;20224;-86
2024/01/18 01:17:28;;;;;;;0.50;0.50;;;;;;;7.54;100.00;93577.31;4954921;29;20201;-86
2024/01/18 01:20:10;;;;;;;0.60;0.60;;;;;;;7.52;100.00;93572.41;4954511;29;20686;-86
2024/01/18 01:22:37;;;;;;;0.50;0.50;;;;;;;7.49;100.00;93561.81;4957631;28;20227;-86
2024/01/18 01:25:03;;;;;;;0.60;0.60;;;;;;;7.50;100.00;93576.97;4973148;28;20204;-86
2024/01/18 01:27:47;;;;;;;0.40;0.40;;;;;;;7.53;100.00;93578.31;4966643;28;20213;-86
2024/01/18 01:30:13;;;;;;;0.50;0.50;;;;;;;7.55;100.00;93571.19;4955048;28;20678;-86
2024/01/18 01:32:41;;;;;;;0.50;0.50;;;;;;;7.55;100.00;93558.41;4965233;28;20224;-86
2024/01/18 01:35:08;;;;;;;0.40;0.40;;;;;;;7.53;100.00;93563.72;4973747;28;20219;-86
2024/01/18 01:37:45;;;;;;;0.40;0.40;;;;;;;7.58;100.00;93553.66;4973821;28;20207;-86
2024/01/18 01:40:12;;;;;;;0.60;0.43;;;;;;;7.56;100.00;93553.06;4972129;28;20251;-86
2024/01/18 01:42:42;;;;;;;0.50;0.50;;;;;;;7.57;100.00;93552.09;4963337;28;20699;-86
2024/01/18 01:45:11;;;;;;;0.40;0.40;;;;;;;7.59;100.00;93541.63;4954501;28;20635;-86
2024/01/18 01:47:53;;;;;;;0.50;0.50;;;;;;;7.58;100.00;93545.97;4953753;29;20858;-86
2024/01/18 01:50:21;;;;;;;0.40;0.40;;;;;;;7.57;100.00;93546.19;4953008;28;20228;-85
2024/01/18 01:52:48;;;;;;;0.40;0.40;;;;;;;7.55;100.00;93541.25;4965841;28;20208;-86
2024/01/18 01:55:16;;;;;;;0.40;0.40;;;;;;;7.55;100.00;93545.59;4971963;28;20204;-85
2024/01/18 01:57:52;;;;;;;0.40;0.40;;;;;;;7.57;100.00;93535.94;4974006;28;20267;-86
2024/01/18 02:00:30;;;;;;;0.30;0.30;;;;;;;7.61;100.00;93537.88;4974169;28;20566;-86
2024/01/18 02:03:11;;;;;;;0.30;0.30;;;;;;;7.61;100.00;93532.75;4974099;28;20196;-86
2024/01/18 02:05:48;;;;;;;0.40;0.40;;;;;;;7.59;100.00;93532.19;4973870;28;20578;-86
2024/01/18 02:08:41;;;;;;;0.70;0.40;;;;;;;7.62;100.00;93529.19;4974059;28;20310;-86
2024/01/18 02:11:08;;;;;;;0.40;0.40;;;;;;;7.56;100.00;93519.78;4970057;28;20306;-86
2024/01/18 02:13:49;;;;;;;0.50;0.50;;;;;;;7.55;100.00;93509.75;4971416;28;20211;-86
2024/01/18 02:16:16;;;;;;;0.40;0.40;;;;;;;7.53;100.00;93521.97;4972035;28;20204;-85
2024/01/18 02:18:46;;;;;;;0.50;0.50;;;;;;;7.54;100.00;93518.41;4972958;28;20995;-86
2024/01/18 02:21:12;;;;;;;0.50;0.50;;;;;;;7.57;100.00;93515.44;4972954;28;20280;-85
2024/01/18 02:23:54;;;;;;;0.40;0.40;;;;;;;7.57;100.00;93506.00;4965344;28;20293;-85
2024/01/18 02:26:22;;;;;;;0.63;0.57;;;;;;;7.55;100.00;93502.06;4957179;28;20206;-86
2024/01/18 02:29:15;;;;;;;0.93;0.50;;;;;;;7.54;100.00;93503.06;4977095;28;20224;-85
2024/01/18 02:31:42;;;;;;;0.40;0.40;;;;;;;7.51;100.00;93488.13;4983687;28;20252;-85
2024/01/18 02:39:51;;;;;;;0.40;0.40;;;;;;;7.47;100.00;93484.41;4951215;28;20196;-87
2024/01/18 02:42:22;;;;;;;0.50;0.50;;;;;;;7.49;100.00;93485.78;4954434;28;20256;-86
2024/01/18 02:45:07;;;;;;;0.30;0.30;;;;;;;7.49;100.00;93480.66;4968319;28;20239;-86
2024/01/18 02:47:40;;;;;;;0.50;0.40;;;;;;;7.49;100.00;93478.09;4976188;28;20245;-87
2024/01/18 02:50:28;;;;;;;0.67;0.40;;;;;;;7.48;100.00;93468.84;4966557;28;20695;-86
2024/01/18 02:53:01;;;;;;;0.50;0.50;;;;;;;7.48;100.00;93470.63;4953205;29;20205;-86
2024/01/18 02:58:17;;;;;;;0.37;0.37;;;;;;;7.50;100.00;93459.19;4952006;28;20208;-85
2024/01/18 03:00:44;;;;;;;0.60;0.50;;;;;;;7.50;100.00;93456.63;4961409;28;20231;-85
2024/01/18 03:03:12;;;;;;;0.50;0.50;;;;;;;7.53;100.00;93456.19;4962740;28;20675;-86
2024/01/18 03:05:50;;;;;;;0.50;0.50;;;;;;;7.51;100.00;93452.28;4966956;28;20201;-86
2024/01/18 03:08:17;;;;;;;0.50;0.50;;;;;;;7.53;100.00;93447.72;4972699;28;20247;-86
2024/01/18 03:10:45;;;;;;;0.50;0.33;;;;;;;7.51;100.00;93453.06;4972729;28;20235;-86
2024/01/18 03:13:14;;;;;;;0.63;0.40;;;;;;;7.51;100.00;93444.59;4972013;28;20741;-85
2024/01/18 03:15:54;;;;;;;0.40;0.40;;;;;;;7.52;100.00;93446.16;4969668;28;20209;-85
2024/01/18 03:18:20;;;;;;;0.40;0.40;;;;;;;7.54;100.00;93442.41;4972175;28;20263;-86
2024/01/18 03:20:47;;;;;;;0.50;0.40;;;;;;;7.54;100.00;93437.28;4964194;28;20224;-86
2024/01/18 03:23:34;;;;;;;0.40;0.40;;;;;;;7.50;100.00;93448.94;4976250;28;20199;-86
2024/01/18 03:26:00;;;;;;;0.40;0.40;;;;;;;7.44;100.00;93447.22;4983471;28;20230;-87
2024/01/18 03:28:30;;;;;;;0.40;0.40;;;;;;;7.42;100.00;93459.44;4991765;28;20584;-86
2024/01/18 03:31:11;;;;;;;0.40;0.40;;;;;;;7.38;100.00;93452.38;4989149;28;20598;-85
2024/01/18 03:33:38;;;;;;;0.30;0.30;;;;;;;7.39;100.00;93453.94;4970688;28;20745;-86
2024/01/18 03:36:06;;;;;;;0.50;0.50;;;;;;;7.40;100.00;93450.41;4954912;28;20205;-86
2024/01/18 03:38:33;;;;;;;0.43;0.43;;;;;;;7.39;100.00;93456.50;4952132;29;20201;-86
2024/01/18 03:41:01;;;;;;;0.40;0.40;;;;;;;7.36;100.00;93462.81;4953634;29;20225;-87
2024/01/18 03:43:35;;;;;;;0.40;0.40;;;;;;;7.34;100.00;93454.56;4952360;28;20289;-86
2024/01/18 03:46:02;;;;;;;0.73;0.40;;;;;;;7.30;100.00;93463.69;4970289;28;20200;-86
2024/01/18 03:48:28;;;;;;;0.50;0.50;;;;;;;7.32;100.00;93471.91;4970921;28;20204;-86
2024/01/18 03:50:55;;;;;;;0.57;0.57;;;;;;;7.38;100.00;93471.09;4966623;28;20217;-86
2024/01/18 03:53:21;;;;;;;0.50;0.50;;;;;;;7.39;100.00;93466.75;4952671;29;20683;-86
2024/01/18 03:55:57;;;;;;;0.40;0.40;;;;;;;7.37;100.00;93464.41;4960471;28;20247;-86
2024/01/18 03:58:23;;;;;;;0.40;0.40;;;;;;;7.38;100.00;93460.84;4952586;29;20205;-86
2024/01/18 04:00:51;;;;;;;0.50;0.50;;;;;;;7.40;100.00;93458.88;4953068;29;20244;-86
2024/01/18 04:03:18;;;;;;;0.60;0.60;;;;;;;7.45;100.00;93448.78;4953609;28;20699;-87
2024/01/18 04:05:45;;;;;;;0.57;0.57;;;;;;;7.47;100.00;93435.78;4969099;28;20200;-86
2024/01/18 04:08:25;;;;;;;0.50;0.50;;;;;;;7.45;100.00;93436.00;4972019;28;20215;-86
2024/01/18 04:10:52;;;;;;;0.60;0.60;;;;;;;7.48;100.00;93427.91;4967147;28;20224;-86
2024/01/18 04:13:19;;;;;;;0.57;0.57;;;;;;;7.49;100.00;93415.88;4952499;28;20208;-86
2024/01/18 04:15:45;;;;;;;0.50;0.50;;;;;;;7.50;100.00;93422.56;4966972;28;20212;-86
2024/01/18 04:18:27;;;;;;;0.50;0.50;;;;;;;7.50;100.00;93418.22;4962964;28;20211;-86
2024/01/18 04:20:53;;;;;;;0.50;0.50;;;;;;;7.48;100.00;93411.75;4973578;28;20212;-86
2024/01/18 04:23:20;;;;;;;0.40;0.40;;;;;;;7.51;100.00;93424.09;4984612;28;20197;-85
2024/01/18 04:25:47;;;;;;;0.60;0.60;;;;;;;7.54;100.00;93406.56;4968685;28;20257;-87
2024/01/18 04:28:13;;;;;;;0.60;0.60;;;;;;;7.59;100.00;93403.38;4966824;28;20201;-85
2024/01/18 04:30:47;;;;;;;0.50;0.50;;;;;;;7.59;100.00;93393.13;4958992;28;20760;-86
2024/01/18 04:33:15;;;;;;;0.50;0.50;;;;;;;7.59;100.00;93390.56;4952260;29;20209;-86
2024/01/18 04:35:44;;;;;;;0.50;0.50;;;;;;;7.60;100.00;93394.69;4964585;28;20795;-86
2024/01/18 04:38:11;;;;;;;0.50;0.50;;;;;;;7.59;100.00;93388.78;4969338;28;20585;-85
2024/01/18 04:40:52;;;;;;;0.70;0.70;;;;;;;7.60;100.00;93382.66;4955637;28;20316;-87
2024/01/18 04:43:19;;;;;;;0.50;0.50;;;;;;;7.56;100.00;93378.97;4952041;28;20619;-86
2024/01/18 04:45:45;;;;;;;0.40;0.40;;;;;;;7.53;100.00;93378.59;4969714;28;20621;-86
2024/01/18 04:48:12;;;;;;;0.97;0.57;;;;;;;7.55;100.00;93385.06;4974413;28;20670;-85
2024/01/18 04:50:51;;;;;;;1.30;1.10;;;;;;;7.60;100.00;93387.00;4962238;28;20267;-86
2024/01/18 04:53:18;;;;;;;0.70;0.70;;;;;;;7.56;100.00;93371.28;4967902;28;20199;-86
2024/01/18 04:55:44;;;;;;;0.70;0.67;;;;;;;7.60;100.00;93363.97;4980214;28;20204;-87
2024/01/18 04:58:11;;;;;;;0.60;0.60;;;;;;;7.61;100.00;93374.00;4974830;28;20220;-85
2024/01/18 05:00:37;;;;;;;1.00;0.70;;;;;;;7.60;100.00;93371.66;4975017;28;20227;-87
2024/01/18 05:03:19;;;;;;;0.47;0.47;;;;;;;7.61;100.00;93368.09;4975527;28;20208;-86
2024/01/18 05:05:49;;;;;;;0.60;0.60;;;;;;;7.60;100.00;93361.41;4974223;28;20575;-86
2024/01/18 05:08:19;;;;;;;0.70;0.70;;;;;;;7.61;100.00;93362.97;4958882;28;20196;-87
2024/01/18 05:10:56;;;;;;;0.60;0.60;;;;;;;7.61;100.00;93360.41;4970603;28;20235;-86
2024/01/18 05:13:22;;;;;;;0.60;0.60;;;;;;;7.59;100.00;93367.53;4963894;28;20762;-85
2024/01/18 05:15:49;;;;;;;0.60;0.60;;;;;;;7.60;100.00;93362.19;4961309;28;20224;-86
2024/01/18 05:18:16;;;;;;;0.60;0.60;;;;;;;7.61;100.00;93362.97;4955250;28;20208;-86
2024/01/18 05:20:42;;;;;;;0.67;0.60;;;;;;;7.58;100.00;93358.28;4964511;28;20226;-86
2024/01/18 05:23:19;;;;;;;0.70;0.70;;;;;;;7.61;100.00;93365.53;4955825;28;20196;-86
2024/01/18 05:25:45;;;;;;;0.80;0.60;;;;;;;7.62;100.00;93356.84;4973585;28;20704;-84
2024/01/18 05:28:12;;;;;;;0.70;0.70;;;;;;;7.62;100.00;93357.63;4975505;28;20227;-84
2024/01/18 05:30:39;;;;;;;0.87;0.80;;;;;;;7.61;100.00;93348.41;4966963;28;20251;-85
2024/01/18 05:33:05;;;;;;;0.70;0.70;;;;;;;7.60;100.00;93348.59;4974411;28;20693;-85
2024/01/18 05:35:51;;;;;;;0.70;0.70;;;;;;;7.58;100.00;93348.03;4974457;28;20208;-85
2024/01/18 05:38:19;;;;;;;1.07;0.90;;;;;;;7.57;100.00;93344.69;4980128;28;20215;-85
2024/01/18 05:40:49;;;;;;;0.70;0.70;;;;;;;7.57;100.00;93357.50;4962079;28;20226;-86
2024/01/18 05:43:37;;;;;;;0.70;0.70;;;;;;;7.56;100.00;93350.81;4974107;28;20212;-85
2024/01/18 05:46:08;;;;;;;2.30;0.70;;;;;;;7.56;100.00;93350.81;4980252;28;20207;-85
2024/01/18 05:48:55;;;;;;;1.23;0.93;;;;;;;7.53;100.00;93350.44;4969174;28;20223;-85
2024/01/18 05:51:24;;;;;;;0.93;0.80;;;;;;;7.54;100.00;93357.13;4963569;28;20583;-86
2024/01/18 05:53:59;;;;;;;0.97;0.90;;;;;;;7.54;100.00;93345.09;4963780;28;20201;-87
2024/01/18 05:56:26;;;;;;;0.80;0.80;;;;;;;7.58;100.00;93342.91;4962915;28;20232;-87
2024/01/18 05:58:52;;;;;;;1.00;0.90;;;;;;;7.55;100.00;93330.53;4963088;28;20783;-85
2024/01/18 06:01:19;;;;;;;2.53;1.30;;;;;;;7.54;100.00;93336.63;4965453;28;20224;-84
2024/01/18 06:03:45;;;;;;;1.67;1.10;;;;;;;7.49;100.00;93339.88;4964790;28;20196;-85
2024/01/18 06:09:21;;;;;;;2.27;1.00;;;;;;;7.53;100.00;93340.97;4964445;28;20761;-85
2024/01/18 06:11:49;;;;;;;0.80;0.80;;;;;;;7.53;100.00;93340.19;4973361;28;20228;-86
2024/01/18 06:14:18;;;;;;;1.10;1.00;;;;;;;7.52;100.00;93346.31;4968921;28;21060;-86
2024/01/18 06:16:45;;;;;;;2.00;1.80;;;;;;;7.55;100.00;93344.13;4972929;28;20247;-86
2024/01/18 06:19:33;;;;;;;3.43;2.83;;;;;;;7.59;100.00;93329.13;4972663;28;20212;-86
2024/01/18 06:22:33;;;;;;;1.50;1.10;;;;;;;7.57;100.00;93324.19;4976678;28;20222;-86
2024/01/18 06:27:47;;;;;;;2.00;1.40;;;;;;;7.41;100.00;93341.91;4956793;28;20201;-86
2024/01/18 06:30:17;;;;;;;1.60;1.20;;;;;;;7.37;100.00;93353.56;4965873;28;20256;-85
2024/01/18 06:32:43;;;;;;;1.83;1.30;;;;;;;7.35;100.00;93358.09;4989459;28;20211;-85
2024/01/18 06:35:25;;;;;;;3.50;1.93;;;;;;;7.33;100.00;93368.53;4978662;28;20614;-86
2024/01/18 06:37:52;;;;;;;1.40;1.20;;;;;;;7.28;100.00;93368.41;4970944;28;20192;-86
2024/01/18 06:40:31;;;;;;;1.40;1.30;;;;;;;7.26;100.00;93376.31;4972637;28;20318;-86
2024/01/18 06:43:12;;;;;;;2.50;2.03;;;;;;;7.23;100.00;93371.59;4990826;28;20211;-86
2024/01/18 06:45:38;;;;;;;2.33;1.40;;;;;;;7.21;100.00;93376.13;4980588;28;20208;-86
2024/01/18 06:48:25;;;;;;;1.77;1.20;;;;;;;7.14;100.00;93375.41;4973590;28;20227;-86
2024/01/18 06:50:52;;;;;;;2.60;1.20;;;;;;;7.16;100.00;93375.19;4968758;28;20228;-86
2024/01/18 06:53:19;;;;;;;3.27;1.37;;;;;;;7.13;100.00;93373.03;4992003;28;20270;-86
2024/01/18 06:56:19;;;;;;;1.50;1.30;;;;;;;7.12;100.00;93379.94;4967558;28;20570;-86
2024/01/18 06:58:59;;;;;;;1.87;1.57;;;;;;;7.10;100.00;93373.50;4973213;28;20228;-86
2024/01/18 07:02:19;;;;;;;;;;;;;;;;;;;;;
2024/01/18 07:04:55;;;;;;;2.47;1.10;;;;;;;7.10;100.00;93379.41;4970664;28;20200;-86
2024/01/18 07:07:57;;;;;;;1.47;1.10;;;;;;;7.11;100.00;93380.19;4972683;28;20203;-86
2024/01/18 07:11:07;;;;;;;1.40;1.30;;;;;;;7.12;100.00;93372.25;4952032;28;20705;-85
2024/01/18 07:13:45;;;;;;;2.23;1.20;;;;;;;7.16;100.00;93373.41;4922417;28;20296;-86
2024/01/18 07:16:12;;;;;;;1.70;1.40;;;;;;;7.14;100.00;93367.72;4958674;28;20201;-85
2024/01/18 07:21:26;;;;;;;1.67;1.30;;;;;;;7.15;100.00;93356.50;4968439;28;20219;-86
2024/01/18 07:23:53;;;;;;;2.07;1.23;;;;;;;7.14;100.00;93360.03;4969770;28;20203;-86
2024/01/18 07:26:27;;;;;;;2.03;1.33;;;;;;;7.18;100.00;93360.41;4984073;28;20203;-86
2024/01/18 07:29:04;;;;;;;1.83;1.40;;;;;;;7.20;100.00;93368.66;4963607;28;20200;-85
2024/01/18 07:31:33;;;;;;;2.17;1.20;;;;;;;7.21;100.00;93357.44;4984138;28;20226;-84
2024/01/18 07:34:03;;;;;;;2.43;1.33;;;;;;;7.19;100.00;93361.97;4982581;28;20208;-84
2024/01/18 07:36:29;;;;;;;2.20;1.30;;;;;;;7.18;100.00;93347.63;4979000;28;20204;-83
2024/01/18 07:38:57;;;;;;;3.93;1.40;;;;;;;7.25;100.00;93348.34;4978454;28;20649;-84
2024/01/18 07:41:23;;;;;;;3.90;1.30;;;;;;;7.22;100.00;93343.66;4981416;28;20212;-84
2024/01/18 07:43:50;;;;;;;0.90;0.90;;;;;;;7.19;100.00;93337.19;4968112;28;20204;-84
2024/01/18 07:46:19;;;;;;;1.87;1.13;;;;;;;7.25;100.00;93333.00;4984023;28;20196;-85
2024/01/18 07:48:47;;;;;;;1.50;1.10;;;;;;;7.28;100.00;93335.16;4978248;28;20204;-84
2024/01/18 07:51:38;;;;;;;2.80;1.37;;;;;;;7.33;100.00;93337.03;4975432;28;20246;-85
2024/01/18 07:57:26;;;;;;;2.20;1.23;;;;;;;7.33;100.00;93321.69;4984508;28;20203;-86
2024/01/18 08:03:20;;;;;;;1.73;1.27;;;;;;;7.29;100.00;93326.47;4949727;28;20204;-85
2024/01/18 08:05:46;;;;;;;1.87;1.10;;;;;;;7.28;100.00;93327.47;4957862;28;20200;-85
2024/01/18 08:17:50;;;;;;;1.40;1.23;;;;;;;7.37;100.00;93322.84;4909973;29;20209;-86
2024/01/18 08:21:02;;;;;;;2.07;1.30;;;;;;;7.40;100.00;93327.53;4922115;29;20222;-85
2024/01/18 08:23:31;;;;;;;1.90;1.60;;;;;;;7.42;100.00;93316.09;4856944;29;20243;-86
2024/01/18 08:26:06;;;;;;;4.13;1.80;;;;;;;7.44;100.00;93319.22;4852667;29;20208;-85
2024/01/18 08:36:00;;;;;;;3.03;1.80;;;;;;;7.56;100.00;93293.69;4961511;28;20231;-85
2024/01/18 08:45:52;;;;;;;1.50;1.37;;;;;;;7.71;100.00;93290.75;4925725;28;20191;-85
2024/01/18 08:48:18;;;;;;;1.53;1.20;;;;;;;7.76;100.00;93294.25;4997678;28;20207;-86
2024/01/18 08:51:24;;;;;;;3.03;1.70;;;;;;;7.81;100.00;93286.69;4996039;28;20213;-86
2024/01/18 08:54:26;;;;;;;;;;;;;;;;;;;;;
2024/01/18 08:57:19;;;;;;;1.57;1.00;;;;;;;8.05;100.00;93253.50;4970761;28;20208;-86
2024/01/18 09:00:13;;;;;;;1.40;1.07;;;;;;;8.13;100.00;93237.81;4976847;28;20200;-85
2024/01/18 09:03:28;;;;;;;1.63;1.10;;;;;;;8.21;100.00;93224.69;4988186;28;20188;-85
2024/01/18 09:06:04;;;;;;;1.00;0.90;;;;;;;8.34;99.98;93218.59;4962317;28;20189;-85
2024/01/18 09:08:45;;;;;;;1.03;0.90;;;;;;;8.59;99.88;93219.19;4961089;28;20207;-84
2024/01/18 09:12:01;;;;;;;;;;;;;;;;;;;;;
2024/01/18 09:24:00;;;;;;;;;;;;;;;;;;;;;
2024/01/18 09:29:43;;;;;;;0.80;0.80;;;;;;;9.12;92.24;93143.84;4967609;28;20219;-86
2024/01/18 09:32:34;;;;;;;1.03;0.83;;;;;;;9.05;91.89;93140.63;4974993;28;20729;-86
2024/01/18 09:35:00;;;;;;;0.80;0.80;;;;;;;8.95;92.28;93167.66;4962776;28;20252;-86
2024/01/18 09:37:51;;;;;;;0.70;0.70;;;;;;;8.88;93.02;93174.69;4982894;28;20201;-85
2024/01/18 09:43:59;;;;;;;1.70;0.80;;;;;;;8.87;94.72;93227.00;4957162;28;20243;-86
2024/01/18 09:47:19;;;;;;;0.83;0.73;;;;;;;8.84;94.97;93212.06;4913523;29;20209;-87
2024/01/18 09:56:04;;;;;;;1.80;1.70;;;;;;;8.96;96.36;93237.72;4871630;29;20195;-86
2024/01/18 09:58:54;;;;;;;0.80;0.80;;;;;;;8.93;96.64;93238.16;4873497;29;20223;-85
2024/01/18 10:13:56;;;;;;;1.30;0.87;;;;;;;9.17;98.36;93249.97;4889352;29;20382;-85
2024/01/18 10:16:33;;;;;;;1.53;0.90;;;;;;;9.20;98.53;93259.03;4892439;29;20195;-85
2024/01/18 10:19:14;;;;;;;0.80;0.80;;;;;;;9.18;98.82;93259.25;4931426;29;20284;-86
2024/01/18 10:24:40;;;;;;;0.70;0.70;;;;;;;9.26;97.79;93235.78;4932909;29;20206;-86
2024/01/18 10:27:25;;;;;;;0.57;0.57;;;;;;;9.35;97.59;93231.88;4939765;28;20204;-86
2024/01/18 10:30:29;;;;;;;0.60;0.60;;;;;;;9.37;97.50;93223.94;4939173;29;20224;-86
2024/01/18 10:46:18;;;;;;;1.80;0.70;;;;;;;9.60;95.59;93169.16;4946120;28;20224;-86
2024/01/18 10:49:16;;;;;;;0.60;0.60;;;;;;;9.72;94.58;93167.31;4971577;28;20231;-86
2024/01/18 10:51:43;;;;;;;0.83;0.80;;;;;;;9.88;94.88;93176.06;4962597;28;20230;-84
2024/01/18 10:54:10;;;;;;;0.67;0.57;;;;;;;9.99;91.75;93124.63;4960299;28;20664;-87
2024/01/18 11:00:15;;;;;;;0.57;0.50;;;;;;;10.31;88.91;93070.09;4941744;28;20221;-85
2024/01/18 11:02:54;;;;;;;0.50;0.50;;;;;;;10.45;88.37;93068.72;4955959;28;20196;-85
2024/01/18 11:05:41;;;;;;;;;;;;;;;;;;;;;
2024/01/18 11:08:08;;;;;;;0.50;0.50;;;;;;;10.59;86.70;93030.56;4956051;28;20204;-85
2024/01/18 11:10:49;;;;;;;0.47;0.47;;;;;;;10.69;86.26;93030.69;4952215;28;20225;-85
2024/01/18 11:13:27;;;;;;;0.50;0.50;;;;;;;10.76;85.35;93009.94;4949546;28;20870;-85
2024/01/18 11:16:04;;;;;;;0.73;0.50;;;;;;;10.77;84.76;92996.06;4954087;29;20203;-86
2024/01/18 11:18:42;;;;;;;1.40;1.20;;;;;;;10.85;84.18;92993.03;4961040;28;20215;-84
2024/01/18 11:21:10;;;;;;;0.50;0.50;;;;;;;10.91;82.35;92940.59;4959682;28;20224;-85
2024/01/18 11:23:38;;;;;;;0.50;0.50;;;;;;;11.00;81.11;92905.66;4960944;28;20208;-83
2024/01/18 11:26:05;;;;;;;0.40;0.40;;;;;;;11.17;79.55;92887.53;4962595;28;20272;-84
2024/01/18 11:28:33;;;;;;;0.40;0.40;;;;;;;11.24;78.43;92854.63;4962942;28;20832;-86
2024/01/18 11:31:21;;;;;;;0.40;0.40;;;;;;;11.36;77.81;92834.59;4961424;28;20216;-85
2024/01/18 11:33:52;;;;;;;0.73;0.57;;;;;;;11.29;77.33;92816.81;4930262;28;20213;-85
2024/01/18 11:40:26;;;;;;;0.50;0.50;;;;;;;11.33;77.07;92809.38;4942321;28;20214;-86
2024/01/18 11:43:00;;;;;;;0.47;0.47;;;;;;;11.34;76.50;92810.94;4950388;28;20212;-85
2024/01/18 11:45:31;;;;;;;0.40;0.40;;;;;;;11.40;76.87;92815.06;4951289;28;20204;-86
2024/01/18 11:50:44;;;;;;;1.33;0.90;;;;;;;11.41;76.84;92829.50;4943860;29;20232;-86
2024/01/18 11:53:20;;;;;;;0.60;0.50;;;;;;;11.39;76.92;92834.13;4950425;28;20227;-86
2024/01/18 11:55:54;;;;;;;0.47;0.47;;;;;;;11.38;77.23;92848.00;4954856;28;20200;-86
2024/01/18 12:41:38;;;;;;;0.40;0.40;;;;;;;10.76;84.29;93018.44;4923960;23;20240;-86
2024/01/18 12:44:06;;;;;;;0.50;0.50;;;;;;;10.78;85.08;93043.91;4957915;28;20583;-86
2024/01/18 12:46:48;;;;;;;0.90;0.50;;;;;;;10.65;86.10;93065.63;4972448;28;20221;-87
2024/01/18 12:49:21;;;;;;;1.60;0.53;;;;;;;10.59;87.93;93098.22;4972760;28;20577;-86
2024/01/18 12:54:28;;;;;;;0.50;0.50;;;;;;;10.59;89.00;93113.66;4713092;26;20220;-86
2024/01/18 12:57:28;;;;;;;0.50;0.50;;;;;;;10.50;89.83;93116.91;4933285;28;20249;-87
2024/01/18 13:03:50;;;;;;;0.53;0.50;;;;;;;10.47;89.47;93120.72;4880871;29;20211;-86
2024/01/18 13:13:20;;;;;;;0.50;0.50;;;;;;;10.45;89.86;93125.31;4911655;29;20317;-86
2024/01/18 13:20:22;;;;;;;0.40;0.40;;;;;;;10.42;91.98;93163.56;4822386;29;20304;-86
2024/01/18 13:23:20;;;;;;;0.30;0.30;;;;;;;10.33;93.26;93194.06;4819674;29;20196;-86
2024/01/18 13:29:56;;;;;;;0.67;0.50;;;;;;;10.45;94.85;93222.28;4819405;29;20238;-86
2024/01/18 13:32:50;;;;;;;0.60;0.53;;;;;;;10.52;93.71;93210.84;4833941;29;20239;-85
2024/01/18 13:39:27;;;;;;;0.50;0.50;;;;;;;10.51;93.94;93211.06;4870151;29;20233;-84
2024/01/18 13:42:13;;;;;;;0.40;0.40;;;;;;;10.42;95.14;93241.53;4875810;29;20231;-86
2024/01/18 13:45:11;;;;;;;0.40;0.40;;;;;;;10.43;94.98;93248.22;4931031;29;20866;-86
2024/01/18 13:50:46;;;;;;;0.50;0.50;;;;;;;10.49;96.23;93275.59;4924936;29;20214;-86
2024/01/18 13:53:35;;;;;;;0.67;0.47;;;;;;;10.36;97.11;93288.75;4934953;29;20229;-86
2024/01/18 13:56:02;;;;;;;0.40;0.40;;;;;;;10.29;98.90;93311.25;4946027;29;20218;-86
2024/01/18 13:58:30;;;;;;;0.50;0.50;;;;;;;10.26;99.65;93337.44;4955505;29;20320;-86
2024/01/18 14:01:07;;;;;;;0.47;0.40;;;;;;;10.20;100.00;93341.69;4947694;29;20249;-85
2024/01/18 14:03:34;;;;;;;0.40;0.40;;;;;;;10.24;100.00;93350.50;4936779;29;20241;-86
2024/01/18 14:06:03;;;;;;;1.27;0.40;;;;;;;10.24;100.00;93376.22;4934768;29;20256;-87
2024/01/18 14:08:32;;;;;;;0.43;0.43;;;;;;;10.21;100.00;93393.91;4933885;29;20765;-86
2024/01/18 14:11:11;;;;;;;0.43;0.43;;;;;;;10.17;100.00;93411.56;4933352;29;20214;-86
2024/01/18 14:14:07;;;;;;;0.67;0.67;;;;;;;10.17;100.00;93447.56;4934304;29;20287;-87
2024/01/18 14:16:45;;;;;;;0.50;0.50;;;;;;;10.15;100.00;93521.56;4897691;29;20277;-87
2024/01/18 14:20:01;;;;;;;0.70;0.70;;;;;;;9.70;99.36;93414.19;4933643;29;20596;-88
2024/01/18 14:22:43;;;;;;;0.60;0.60;;;;;;;9.21;97.52;93399.22;4933231;29;20242;-87
2024/01/18 14:25:23;;;;;;;0.70;0.70;;;;;;;9.01;97.88;93414.91;4934603;29;20663;-87
2024/01/18 14:28:18;;;;;;;8.07;7.27;;;;;;;8.75;96.52;93392.19;4933855;29;20208;-87
2024/01/18 14:30:51;;;;;;;2.43;1.80;;;;;;;8.51;96.12;93381.84;4933132;29;20230;-87
2024/01/18 14:33:38;;;;;;;0.90;0.90;;;;;;;8.40;96.10;93400.53;4931230;29;20715;-87
2024/01/18 14:39:42;;;;;;;0.60;0.60;;;;;;;8.06;96.99;93437.78;4872659;29;20215;-87
2024/01/18 14:42:40;;;;;;;0.80;0.70;;;;;;;7.95;96.82;93441.81;4882699;29;20321;-88
2024/01/18 14:45:34;;;;;;;1.20;0.70;;;;;;;7.76;97.04;93465.84;4928257;29;20210;-88
2024/01/18 14:48:22;;;;;;;0.60;0.60;;;;;;;7.60;97.80;93487.66;4868957;29;20674;-87
2024/01/18 14:56:54;;;;;;;4.13;2.73;;;;;;;7.43;100.00;93563.41;4885626;29;20215;-86
2024/01/18 14:59:39;;;;;;;2.53;2.23;;;;;;;7.41;100.00;93560.25;4955144;29;20281;-86
2024/01/18 15:05:31;;;;;;;0.80;0.80;;;;;;;7.31;100.00;93582.97;4858882;29;20210;-87
2024/01/18 15:14:46;;;;;;;;;;;;;;;;;;;;;
2024/01/18 15:17:27;;;;;;;0.80;0.80;;;;;;;7.01;100.00;93631.31;4899777;29;20211;-86
2024/01/18 15:19:56;;;;;;;2.30;1.43;;;;;;;6.94;99.70;93630.56;4922793;29;20217;-87
2024/01/18 15:25:17;;;;;;;1.30;0.80;;;;;;;6.60;99.87;93649.53;4952007;29;20248;-87
2024/01/18 15:28:04;;;;;;;0.83;0.83;;;;;;;6.45;99.30;93664.31;4953009;28;20190;-86
2024/01/18 15:33:16;;;;;;;0.87;0.70;;;;;;;6.05;96.47;93643.88;4267003;26;20223;-87
2024/01/18 15:35:43;;;;;;;0.70;0.67;;;;;;;5.85;96.48;93653.25;4966767;28;20230;-88
2024/01/18 15:38:49;;;;;;;;;;;;;;;;;;;;;
2024/01/18 15:41:32;;;;;;;0.70;0.70;;;;;;;5.45;96.89;93677.91;4939810;28;20247;-87
2024/01/18 15:44:04;;;;;;;1.33;0.90;;;;;;;5.47;98.44;93720.13;4949419;29;20212;-87
2024/01/18 15:49:54;;;;;;;1.27;1.17;;;;;;;5.39;97.39;93733.03;4949913;29;20220;-87
2024/01/18 15:52:24;;;;;;;1.80;1.00;;;;;;;5.42;98.01;93757.41;4949631;28;20228;-85
2024/01/18 15:55:06;;;;;;;1.77;1.37;;;;;;;5.25;95.45;93722.97;4965150;28;20204;-87
2024/01/18 15:57:41;;;;;;;2.00;1.10;;;;;;;5.07;94.45;93720.94;4970677;28;20212;-87
2024/01/18 16:00:30;;;;;;;2.70;1.43;;;;;;;4.95;95.02;93740.31;4971019;28;20204;-87
2024/01/18 16:03:00;;;;;;;2.40;1.30;;;;;;;4.92;95.66;93773.81;4972318;28;20642;-87